createdAt,value
2022-12-03T00:04:48.511Z,6.03
2022-12-03T00:09:51.112Z,6.02
2022-12-03T00:14:53.755Z,5.84
2022-12-03T00:19:56.293Z,5.78
2022-12-03T00:24:58.665Z,5.94
2022-12-03T00:30:02.437Z,6.17
2022-12-03T00:35:05.269Z,6.08
2022-12-03T00:40:08.542Z,6.00
2022-12-03T00:45:11.264Z,5.01
2022-12-03T00:50:13.679Z,4.97
2022-12-03T00:55:16.891Z,5.39
2022-12-03T01:00:24.616Z,5.71
2022-12-03T01:05:27.030Z,5.86
2022-12-03T01:10:29.408Z,5.92
2022-12-03T01:15:31.885Z,6.14
2022-12-03T01:20:36.412Z,5.78
2022-12-03T01:25:39.014Z,4.92
2022-12-03T01:31:01.420Z,5.03
2022-12-03T01:36:04.230Z,4.79
2022-12-03T01:41:11.545Z,5.40
2022-12-03T01:46:21.211Z,5.93
2022-12-03T01:51:23.783Z,6.21
2022-12-03T01:56:27.071Z,6.57
2022-12-03T02:01:29.578Z,6.75
2022-12-03T02:06:32.111Z,6.98
2022-12-03T02:11:38.785Z,6.86
2022-12-03T02:16:42.324Z,7.21
2022-12-03T02:22:15.933Z,7.12
2022-12-03T02:27:18.771Z,6.85
2022-12-03T02:32:23.496Z,6.73
2022-12-03T02:37:36.076Z,6.82
2022-12-03T02:42:39.415Z,6.64
2022-12-03T02:47:51.527Z,6.43
2022-12-03T02:52:56.178Z,6.43
2022-12-03T02:57:58.683Z,6.52
2022-12-03T03:03:03.005Z,6.42
2022-12-03T03:08:07.004Z,7.00
2022-12-03T03:13:13.266Z,6.87
2022-12-03T03:18:16.934Z,6.68
2022-12-03T03:23:21.913Z,6.60
2022-12-03T03:28:25.651Z,6.67
2022-12-03T03:33:28.481Z,6.57
2022-12-03T03:38:31.942Z,6.51
2022-12-03T03:43:38.025Z,6.36
2022-12-03T03:48:41.934Z,6.51
2022-12-03T03:53:50.322Z,6.46
2022-12-03T03:58:52.894Z,6.61
2022-12-03T04:03:57.412Z,6.54
2022-12-03T04:08:59.860Z,6.51
2022-12-03T04:14:02.389Z,6.81
2022-12-03T04:19:04.739Z,6.88
2022-12-03T04:24:08.985Z,6.62
2022-12-03T04:29:11.759Z,6.53
2022-12-03T04:34:32.843Z,6.35
2022-12-03T04:39:35.258Z,6.59
2022-12-03T04:44:37.764Z,6.51
2022-12-03T04:49:42.494Z,6.51
2022-12-03T04:54:45.532Z,6.45
2022-12-03T04:59:48.157Z,6.49
2022-12-03T05:04:50.808Z,6.76
2022-12-03T05:09:53.432Z,6.62
2022-12-03T05:14:56.186Z,6.53
2022-12-03T05:20:17.656Z,6.75
2022-12-03T05:25:20.333Z,7.05
2022-12-03T05:30:22.939Z,7.11
2022-12-03T05:35:26.070Z,6.94
2022-12-03T05:40:28.634Z,7.14
2022-12-03T05:45:37.211Z,7.31
2022-12-03T05:50:43.209Z,7.41
2022-12-03T05:55:51.503Z,7.27
2022-12-03T06:00:53.893Z,6.97
2022-12-03T06:05:56.324Z,6.69
2022-12-03T06:10:58.673Z,6.65
2022-12-03T06:16:01.471Z,6.65
2022-12-03T06:21:03.975Z,6.69
2022-12-03T06:26:06.633Z,6.65
2022-12-03T06:31:09.464Z,6.51
2022-12-03T06:36:12.703Z,6.43
2022-12-03T06:41:15.095Z,6.52
2022-12-03T06:46:17.958Z,6.40
2022-12-03T06:51:20.542Z,6.39
2022-12-03T06:56:22.975Z,6.54
2022-12-03T07:01:25.692Z,6.80
2022-12-03T07:06:28.110Z,6.84
2022-12-03T07:11:39.631Z,6.71
2022-12-03T07:16:43.530Z,6.98
2022-12-03T07:21:46.065Z,6.70
2022-12-03T07:26:48.819Z,6.86
2022-12-03T07:31:51.516Z,6.74
2022-12-03T07:36:54.022Z,6.80
2022-12-03T07:41:56.426Z,6.62
2022-12-03T07:46:59.121Z,6.68
2022-12-03T07:52:01.719Z,6.81
2022-12-03T07:57:04.215Z,6.88
2022-12-03T08:02:06.754Z,7.06
2022-12-03T08:07:09.202Z,6.92
2022-12-03T08:12:22.837Z,6.95
2022-12-03T08:17:26.038Z,7.03
2022-12-03T08:22:28.479Z,6.98
2022-12-03T08:27:30.881Z,6.89
2022-12-03T08:32:33.258Z,6.78
2022-12-03T08:37:36.914Z,6.59
2022-12-03T08:42:42.560Z,6.67
2022-12-03T08:47:45.250Z,6.70
2022-12-03T08:52:47.889Z,6.66
2022-12-03T08:57:50.708Z,6.51
2022-12-03T09:02:58.527Z,6.51
2022-12-03T09:08:01.110Z,6.39
2022-12-03T09:13:03.725Z,5.94
2022-12-03T09:18:08.955Z,5.77
2022-12-03T09:23:11.348Z,5.79
2022-12-03T09:28:13.751Z,5.50
2022-12-03T09:33:16.208Z,5.13
2022-12-03T09:38:18.732Z,5.22
2022-12-03T09:43:21.569Z,5.63
2022-12-03T09:48:24.099Z,5.93
2022-12-03T09:53:28.613Z,6.02
2022-12-03T09:58:34.694Z,6.05
2022-12-03T10:03:41.079Z,6.06
2022-12-03T10:08:46.254Z,5.87
2022-12-03T10:13:49.577Z,5.67
2022-12-03T10:18:55.742Z,5.75
2022-12-03T10:24:16.868Z,5.61
2022-12-03T10:29:22.706Z,5.25
2022-12-03T10:34:38.033Z,5.28
2022-12-03T10:40:00.334Z,5.13
2022-12-03T10:45:22.735Z,5.25
2022-12-03T10:50:25.161Z,5.63
2022-12-03T10:55:33.679Z,5.73
2022-12-03T11:00:36.107Z,5.53
2022-12-03T11:05:38.521Z,5.71
2022-12-03T11:10:41.495Z,5.85
2022-12-03T11:15:45.262Z,5.92
2022-12-03T11:20:47.864Z,6.32
2022-12-03T11:25:50.857Z,6.47
2022-12-03T11:30:53.700Z,6.26
2022-12-03T11:36:05.345Z,5.96
2022-12-03T11:41:13.582Z,5.78
2022-12-03T11:46:16.170Z,5.66
2022-12-03T11:51:21.798Z,6.13
2022-12-03T11:56:27.706Z,6.31
2022-12-03T12:01:39.123Z,6.60
2022-12-03T12:06:43.883Z,6.76
2022-12-03T12:11:46.365Z,6.71
2022-12-03T12:16:53.133Z,6.80
2022-12-03T12:22:11.784Z,6.93
2022-12-03T12:27:17.194Z,7.01
2022-12-03T12:32:29.416Z,7.07
2022-12-03T12:38:03.558Z,7.05
2022-12-03T12:43:14.392Z,6.92
2022-12-03T12:48:39.247Z,7.04
2022-12-03T12:53:45.160Z,7.03
2022-12-03T12:58:48.019Z,6.84
2022-12-03T13:03:52.102Z,6.83
2022-12-03T13:08:54.932Z,7.06
2022-12-03T13:13:57.325Z,6.89
2022-12-03T13:19:01.712Z,6.45
2022-12-03T13:24:28.494Z,6.65
2022-12-03T13:29:32.774Z,6.69
2022-12-03T13:34:35.915Z,6.47
2022-12-03T13:39:43.701Z,6.16
2022-12-03T13:44:49.050Z,6.18
2022-12-03T13:49:58.270Z,6.22
2022-12-03T13:55:07.236Z,6.34
2022-12-03T14:00:11.134Z,6.10
2022-12-03T14:05:15.131Z,5.60
2022-12-03T14:10:17.894Z,5.89
2022-12-03T14:15:21.571Z,5.45
2022-12-03T14:20:23.981Z,5.51
2022-12-03T14:25:26.582Z,5.37
2022-12-03T14:30:28.997Z,5.26
2022-12-03T14:35:31.362Z,5.64
2022-12-03T14:40:33.751Z,5.92
2022-12-03T14:45:36.256Z,6.17
2022-12-03T14:50:39.219Z,6.30
2022-12-03T14:55:41.615Z,6.18
2022-12-03T15:00:44.023Z,5.92
2022-12-03T15:05:46.454Z,5.28
2022-12-03T15:10:49.219Z,5.16
2022-12-03T15:15:51.798Z,5.11
2022-12-03T15:20:54.204Z,5.27
2022-12-03T15:25:56.690Z,5.55
2022-12-03T15:30:59.159Z,5.53
2022-12-03T15:36:01.574Z,5.66
2022-12-03T15:41:21.141Z,5.65
2022-12-03T15:46:23.900Z,5.68
2022-12-03T15:51:26.389Z,5.66
2022-12-03T15:56:28.848Z,5.74
2022-12-03T16:01:31.478Z,5.40
2022-12-03T16:06:34.053Z,5.04
2022-12-03T16:11:36.483Z,5.08
2022-12-03T16:16:38.963Z,4.94
2022-12-03T16:21:41.337Z,4.63
2022-12-03T16:26:43.740Z,4.61
2022-12-03T16:31:46.291Z,4.32
2022-12-03T16:36:49.065Z,4.43
2022-12-03T16:41:51.479Z,4.43
2022-12-03T16:46:53.932Z,4.72
2022-12-03T16:51:56.434Z,4.74
2022-12-03T16:56:58.839Z,4.83
2022-12-03T17:02:01.425Z,4.97
2022-12-03T17:07:04.060Z,5.20
2022-12-03T17:12:06.769Z,5.37
2022-12-03T17:17:09.158Z,5.38
2022-12-03T17:22:11.615Z,5.18
2022-12-03T17:27:13.976Z,5.37
2022-12-03T17:32:16.407Z,5.63
2022-12-03T17:37:19.053Z,5.97
2022-12-03T17:42:21.747Z,5.73
2022-12-03T17:47:24.587Z,5.33
2022-12-03T17:52:30.757Z,5.33
2022-12-03T17:57:33.411Z,5.46
2022-12-03T18:02:35.787Z,5.65
2022-12-03T18:07:38.185Z,5.71
2022-12-03T18:12:40.653Z,5.90
2022-12-03T18:17:43.340Z,5.90
2022-12-03T18:22:45.946Z,5.96
2022-12-03T18:27:48.639Z,6.08
2022-12-03T18:32:51.354Z,6.01
2022-12-03T18:37:53.954Z,5.86
2022-12-03T18:42:57.323Z,5.79
2022-12-03T18:47:59.965Z,5.95
2022-12-03T18:53:02.408Z,5.86
2022-12-03T18:58:07.719Z,5.81
2022-12-03T19:03:10.951Z,5.93
2022-12-03T19:08:15.181Z,6.09
2022-12-03T19:13:17.812Z,6.05
2022-12-03T19:18:21.326Z,6.17
2022-12-03T19:23:23.943Z,6.32
2022-12-03T19:28:28.181Z,6.16
2022-12-03T19:33:31.749Z,6.26
2022-12-03T19:38:34.488Z,6.22
2022-12-03T19:43:38.135Z,6.14
2022-12-03T19:48:41.430Z,6.09
2022-12-03T19:53:44.105Z,5.86
2022-12-03T19:58:47.917Z,5.92
2022-12-03T20:03:53.220Z,5.70
2022-12-03T20:09:00.811Z,5.45
2022-12-03T20:14:06.067Z,5.59
2022-12-03T20:19:12.165Z,5.58
2022-12-03T20:24:16.657Z,5.41
2022-12-03T20:29:19.358Z,5.19
2022-12-03T20:34:21.747Z,4.88
2022-12-03T20:39:24.154Z,5.05
2022-12-03T20:44:26.591Z,5.26
2022-12-03T20:49:29.009Z,5.44
2022-12-03T20:54:31.369Z,5.69
2022-12-03T20:59:33.824Z,5.84
2022-12-03T21:04:36.350Z,6.03
2022-12-03T21:09:38.835Z,6.05
2022-12-03T21:14:41.283Z,6.20
2022-12-03T21:19:43.722Z,6.25
2022-12-03T21:24:46.406Z,6.18
2022-12-03T21:29:49.168Z,6.10
2022-12-03T21:34:51.699Z,6.14
2022-12-03T21:39:54.378Z,6.18
2022-12-03T21:44:57.033Z,6.13
2022-12-03T21:49:59.442Z,6.25
2022-12-03T21:55:02.184Z,6.22
2022-12-03T22:00:07.768Z,6.05
2022-12-03T22:05:12.895Z,6.10
2022-12-03T22:10:15.357Z,6.07
2022-12-03T22:15:19.366Z,6.15
2022-12-03T22:20:22.057Z,6.18
2022-12-03T22:25:24.574Z,6.19
2022-12-03T22:30:27.018Z,6.03
2022-12-03T22:35:29.432Z,5.88
2022-12-03T22:40:31.801Z,5.85
2022-12-03T22:45:35.577Z,5.60
2022-12-03T22:50:45.934Z,5.53
2022-12-03T22:56:00.942Z,5.70
2022-12-03T23:01:03.455Z,5.73
2022-12-03T23:06:12.547Z,5.84
2022-12-03T23:11:15.758Z,6.03
2022-12-03T23:16:24.952Z,6.00
2022-12-03T23:21:30.621Z,6.21
2022-12-03T23:26:37.819Z,6.29
2022-12-03T23:31:40.547Z,5.89
2022-12-03T23:36:43.050Z,5.91
2022-12-03T23:41:45.478Z,6.24
2022-12-03T23:46:48.007Z,6.18
2022-12-03T23:51:50.814Z,6.19
2022-12-03T23:56:53.178Z,6.20
